createdAt,value
2018-09-08T00:00:50.275Z,0.00
2018-09-08T00:01:50.225Z,0.00
2018-09-08T00:02:50.218Z,0.00
2018-09-08T00:03:50.204Z,0.00
2018-09-08T00:04:50.213Z,0.00
2018-09-08T00:05:50.254Z,0.00
2018-09-08T00:06:50.170Z,0.00
2018-09-08T00:07:50.159Z,0.00
2018-09-08T00:08:50.150Z,0.00
2018-09-08T00:09:50.154Z,0.00
2018-09-08T00:10:50.142Z,0.00
2018-09-08T00:11:50.121Z,0.00
2018-09-08T00:12:50.103Z,0.00
2018-09-08T00:13:50.111Z,0.00
2018-09-08T00:14:50.082Z,0.00
2018-09-08T00:15:50.071Z,0.00
2018-09-08T00:16:50.074Z,0.00
2018-09-08T00:17:50.052Z,0.00
2018-09-08T00:18:50.072Z,0.00
2018-09-08T00:19:50.024Z,0.00
2018-09-08T00:20:50.012Z,0.00
2018-09-08T00:21:50.007Z,0.00
2018-09-08T00:22:50.016Z,0.00
2018-09-08T00:23:49.975Z,0.00
2018-09-08T00:24:49.963Z,0.00
2018-09-08T00:25:49.956Z,0.00
2018-09-08T00:26:49.942Z,0.00
2018-09-08T00:27:49.951Z,0.00
2018-09-08T00:28:49.955Z,0.00
2018-09-08T00:29:49.954Z,0.00
2018-09-08T00:30:49.918Z,0.00
2018-09-08T00:31:49.909Z,0.00
2018-09-08T00:32:49.883Z,0.00
2018-09-08T00:33:49.880Z,0.00
2018-09-08T00:34:49.901Z,0.00
2018-09-08T00:35:49.844Z,0.00
2018-09-08T00:36:49.848Z,0.00
2018-09-08T00:37:49.834Z,0.00
2018-09-08T00:38:49.812Z,0.00
2018-09-08T00:39:49.792Z,0.00
2018-09-08T00:40:49.785Z,0.00
2018-09-08T00:41:49.832Z,0.00
2018-09-08T00:42:49.780Z,0.00
2018-09-08T00:43:49.754Z,0.00
2018-09-08T00:44:49.738Z,0.00
2018-09-08T00:45:49.788Z,0.00
2018-09-08T00:46:49.721Z,0.00
2018-09-08T00:47:49.707Z,0.00
2018-09-08T00:48:49.717Z,0.00
2018-09-08T00:49:49.708Z,0.00
2018-09-08T00:50:49.670Z,0.00
2018-09-08T00:51:49.662Z,0.00
2018-09-08T00:52:49.652Z,0.00
2018-09-08T00:53:49.653Z,0.00
2018-09-08T00:54:49.624Z,0.00
2018-09-08T00:55:49.664Z,0.00
2018-09-08T00:56:49.603Z,0.00
2018-09-08T00:57:49.594Z,0.00
2018-09-08T00:58:49.625Z,0.00
2018-09-08T00:59:49.590Z,0.00
2018-09-08T01:00:49.649Z,0.00
2018-09-08T01:01:49.585Z,0.00
2018-09-08T01:02:49.584Z,0.00
2018-09-08T01:03:49.589Z,0.00
2018-09-08T01:04:49.551Z,0.00
2018-09-08T01:05:49.519Z,0.00
2018-09-08T01:06:49.486Z,0.00
2018-09-08T01:07:49.570Z,0.00
2018-09-08T01:08:49.495Z,0.00
2018-09-08T01:09:49.458Z,0.00
2018-09-08T01:10:49.449Z,0.00
2018-09-08T01:11:49.516Z,0.00
2018-09-08T01:12:49.423Z,0.00
2018-09-08T01:13:49.414Z,0.00
2018-09-08T01:14:49.398Z,0.00
2018-09-08T01:15:49.390Z,0.00
2018-09-08T01:16:49.389Z,0.00
2018-09-08T01:17:49.386Z,0.00
2018-09-08T01:18:49.353Z,0.00
2018-09-08T01:19:49.342Z,0.00
2018-09-08T01:20:49.330Z,0.00
2018-09-08T01:21:49.319Z,0.00
2018-09-08T01:22:49.344Z,0.00
2018-09-08T01:23:49.315Z,0.00
2018-09-08T01:24:49.288Z,0.00
2018-09-08T01:25:49.281Z,0.00
2018-09-08T01:26:49.264Z,0.00
2018-09-08T01:27:49.250Z,0.00
2018-09-08T01:28:49.241Z,0.00
2018-09-08T01:29:49.262Z,0.00
2018-09-08T01:30:49.238Z,0.00
2018-09-08T01:31:49.210Z,0.00
2018-09-08T01:32:49.195Z,0.00
2018-09-08T01:33:49.185Z,0.00
2018-09-08T01:34:49.176Z,0.00
2018-09-08T01:35:49.183Z,0.00
2018-09-08T01:36:49.148Z,0.00
2018-09-08T01:37:49.208Z,0.00
2018-09-08T01:38:49.128Z,0.00
2018-09-08T01:39:49.113Z,0.00
2018-09-08T01:40:49.130Z,0.00
2018-09-08T01:41:49.115Z,0.00
2018-09-08T01:42:49.095Z,0.00
2018-09-08T01:43:49.118Z,0.00
2018-09-08T01:44:49.066Z,0.00
2018-09-08T01:45:49.048Z,0.00
2018-09-08T01:46:49.072Z,0.00
2018-09-08T01:47:49.041Z,0.00
2018-09-08T01:48:49.014Z,0.00
2018-09-08T01:49:49.011Z,0.00
2018-09-08T01:50:48.996Z,0.00
2018-09-08T01:51:48.987Z,0.00
2018-09-08T01:52:49.051Z,0.00
2018-09-08T01:53:48.958Z,0.00
2018-09-08T01:54:48.954Z,0.00
2018-09-08T01:55:48.945Z,0.00
2018-09-08T01:56:48.924Z,0.00
2018-09-08T01:57:48.924Z,0.00
2018-09-08T01:58:48.951Z,0.00
2018-09-08T01:59:48.892Z,0.00
2018-09-08T02:00:48.877Z,0.00
2018-09-08T02:01:48.875Z,0.00
2018-09-08T02:02:48.858Z,0.00
2018-09-08T02:03:48.845Z,0.00
2018-09-08T02:04:48.865Z,0.00
2018-09-08T02:05:48.871Z,0.00
2018-09-08T02:06:48.845Z,0.00
2018-09-08T02:07:48.800Z,0.00
2018-09-08T02:08:48.790Z,0.00
2018-09-08T02:09:48.782Z,0.00
2018-09-08T02:10:48.792Z,0.00
2018-09-08T02:11:48.754Z,0.00
2018-09-08T02:12:48.742Z,0.00
2018-09-08T02:13:48.731Z,0.00
2018-09-08T02:14:48.717Z,0.00
2018-09-08T02:15:48.755Z,0.00
2018-09-08T02:16:48.713Z,0.00
2018-09-08T02:17:48.685Z,0.00
2018-09-08T02:18:48.707Z,0.00
2018-09-08T02:19:48.716Z,0.00
2018-09-08T02:20:48.654Z,0.00
2018-09-08T02:21:48.649Z,0.00
2018-09-08T02:22:48.662Z,0.00
2018-09-08T02:23:48.613Z,0.00
2018-09-08T02:24:48.613Z,0.00
2018-09-08T02:25:48.607Z,0.00
2018-09-08T02:26:48.589Z,0.00
2018-09-08T02:27:48.592Z,0.00
2018-09-08T02:28:48.563Z,0.00
2018-09-08T02:29:48.584Z,0.00
2018-09-08T02:30:48.548Z,0.00
2018-09-08T02:31:48.532Z,0.00
2018-09-08T02:32:48.521Z,0.00
2018-09-08T02:33:48.607Z,0.00
2018-09-08T02:34:48.495Z,0.00
2018-09-08T02:35:48.501Z,0.00
2018-09-08T02:36:48.471Z,0.00
2018-09-08T02:37:48.458Z,0.00
2018-09-08T02:38:48.445Z,0.00
2018-09-08T02:39:48.497Z,0.00
2018-09-08T02:40:48.430Z,0.00
2018-09-08T02:41:48.413Z,0.00
2018-09-08T02:42:48.410Z,0.00
2018-09-08T02:43:48.401Z,0.00
2018-09-08T02:44:48.385Z,0.00
2018-09-08T02:45:48.391Z,0.00
2018-09-08T02:46:48.401Z,0.00
2018-09-08T02:47:48.351Z,0.00
2018-09-08T02:48:48.339Z,0.00
2018-09-08T02:49:48.324Z,0.00
2018-09-08T02:50:48.310Z,0.00
2018-09-08T02:51:48.317Z,0.00
2018-09-08T02:52:48.334Z,0.00
2018-09-08T02:53:48.281Z,0.00
2018-09-08T02:54:48.328Z,0.00
2018-09-08T02:55:48.272Z,0.00
2018-09-08T02:56:48.304Z,0.00
2018-09-08T02:57:48.232Z,0.00
2018-09-08T02:58:48.225Z,0.00
2018-09-08T02:59:48.210Z,0.00
2018-09-08T03:00:48.269Z,0.00
2018-09-08T03:01:48.191Z,0.00
2018-09-08T03:02:48.199Z,0.00
2018-09-08T03:03:48.212Z,0.00
2018-09-08T03:04:48.153Z,0.00
2018-09-08T03:05:48.142Z,0.00
2018-09-08T03:06:48.133Z,0.00
2018-09-08T03:07:48.121Z,0.00
2018-09-08T03:08:48.124Z,0.00
2018-09-08T03:09:48.097Z,0.00
2018-09-08T03:10:48.089Z,0.00
2018-09-08T03:11:48.132Z,0.00
2018-09-08T03:12:48.065Z,0.00
2018-09-08T03:13:48.054Z,0.00
2018-09-08T03:14:48.045Z,0.00
2018-09-08T03:15:48.030Z,0.00
2018-09-08T03:16:48.027Z,0.00
2018-09-08T03:17:48.019Z,0.00
2018-09-08T03:18:48.019Z,0.00
2018-09-08T03:19:47.982Z,0.00
2018-09-08T03:20:47.972Z,0.00
2018-09-08T03:21:47.969Z,0.00
2018-09-08T03:22:47.952Z,0.00
2018-09-08T03:23:47.974Z,0.00
2018-09-08T03:24:47.943Z,0.00
2018-09-08T03:25:47.917Z,0.00
2018-09-08T03:26:47.910Z,0.00
2018-09-08T03:27:47.901Z,0.00
2018-09-08T03:28:47.909Z,0.00
2018-09-08T03:29:47.920Z,0.00
2018-09-08T03:30:47.915Z,0.00
2018-09-08T03:31:47.847Z,0.00
2018-09-08T03:32:47.840Z,0.00
2018-09-08T03:33:47.823Z,0.00
2018-09-08T03:34:47.821Z,0.00
2018-09-08T03:35:47.846Z,0.00
2018-09-08T03:36:47.807Z,0.00
2018-09-08T03:37:47.779Z,0.00
2018-09-08T03:38:47.785Z,0.00
2018-09-08T03:39:47.763Z,0.00
2018-09-08T03:40:47.822Z,0.00
2018-09-08T03:41:47.738Z,0.00
2018-09-08T03:42:47.737Z,0.00
2018-09-08T03:43:47.716Z,0.00
2018-09-08T03:44:47.709Z,0.00
2018-09-08T03:45:47.685Z,0.00
2018-09-08T03:46:47.677Z,0.00
2018-09-08T03:47:47.723Z,0.00
2018-09-08T03:48:47.702Z,0.00
2018-09-08T03:49:47.647Z,0.00
2018-09-08T03:50:47.642Z,0.00
2018-09-08T03:51:47.626Z,0.00
2018-09-08T03:52:47.635Z,0.00
2018-09-08T03:53:47.630Z,0.00
2018-09-08T03:54:47.624Z,0.00
2018-09-08T03:55:47.578Z,0.00
2018-09-08T03:56:47.569Z,0.00
2018-09-08T03:57:47.551Z,0.00
2018-09-08T03:58:47.548Z,0.00
2018-09-08T03:59:47.555Z,0.00
2018-09-08T04:00:47.521Z,0.00
2018-09-08T04:01:47.511Z,0.00
2018-09-08T04:02:47.498Z,0.00
2018-09-08T04:03:47.529Z,0.00
2018-09-08T04:04:47.476Z,0.00
2018-09-08T04:05:47.480Z,0.00
2018-09-08T04:06:47.471Z,0.00
2018-09-08T04:07:47.437Z,0.00
2018-09-08T04:08:47.431Z,0.00
2018-09-08T04:09:47.420Z,0.00
2018-09-08T04:10:47.432Z,0.00
2018-09-08T04:11:47.418Z,0.00
2018-09-08T04:12:47.386Z,0.00
2018-09-08T04:13:47.374Z,0.00
2018-09-08T04:14:47.433Z,0.00
2018-09-08T04:15:47.356Z,0.00
2018-09-08T04:16:47.351Z,0.00
2018-09-08T04:17:47.410Z,0.00
2018-09-08T04:18:47.318Z,0.00
2018-09-08T04:19:47.306Z,0.00
2018-09-08T04:20:47.295Z,0.00
2018-09-08T04:21:47.302Z,0.00
2018-09-08T04:22:47.276Z,0.00
2018-09-08T04:23:47.285Z,0.00
2018-09-08T04:24:47.249Z,0.00
2018-09-08T04:25:47.237Z,0.00
2018-09-08T04:26:47.228Z,0.00
2018-09-08T04:27:47.219Z,0.00
2018-09-08T04:28:47.204Z,0.00
2018-09-08T04:29:47.216Z,0.00
2018-09-08T04:30:47.180Z,0.00
2018-09-08T04:31:47.169Z,0.00
2018-09-08T04:32:47.162Z,0.00
2018-09-08T04:33:47.198Z,4.00
2018-09-08T04:34:47.150Z,0.00
2018-09-08T04:35:47.164Z,0.00
2018-09-08T04:36:47.115Z,4.00
2018-09-08T04:37:47.121Z,4.00
2018-09-08T04:38:47.090Z,0.00
2018-09-08T04:39:47.077Z,4.00
2018-09-08T04:40:47.088Z,4.00
2018-09-08T04:41:47.075Z,4.00
2018-09-08T04:42:47.058Z,8.00
2018-09-08T04:43:47.033Z,4.00
2018-09-08T04:44:47.026Z,4.00
2018-09-08T04:45:47.016Z,8.00
2018-09-08T04:46:47.000Z,8.00
2018-09-08T04:47:47.031Z,8.00
2018-09-08T04:48:46.985Z,12.00
2018-09-08T04:49:46.965Z,12.00
2018-09-08T04:50:46.955Z,8.00
2018-09-08T04:51:46.954Z,16.00
2018-09-08T04:52:46.954Z,16.00
2018-09-08T04:53:46.948Z,16.00
2018-09-08T04:54:46.907Z,16.00
2018-09-08T04:55:46.898Z,20.00
2018-09-08T04:56:46.893Z,20.00
2018-09-08T04:57:46.907Z,20.00
2018-09-08T04:58:46.874Z,28.00
2018-09-08T04:59:46.885Z,28.00
2018-09-08T05:00:46.856Z,24.00
2018-09-08T05:01:46.833Z,36.00
2018-09-08T05:02:46.847Z,32.00
2018-09-08T05:03:46.813Z,32.00
2018-09-08T05:04:46.829Z,44.00
2018-09-08T05:05:46.836Z,40.00
2018-09-08T05:06:46.776Z,40.00
2018-09-08T05:07:46.768Z,52.00
2018-09-08T05:08:46.818Z,52.00
2018-09-08T05:09:46.746Z,48.00
2018-09-08T05:10:46.789Z,56.00
2018-09-08T05:11:46.732Z,56.00
2018-09-08T05:12:46.732Z,56.00
2018-09-08T05:13:46.695Z,68.00
2018-09-08T05:14:46.685Z,72.00
2018-09-08T05:15:46.713Z,64.00
2018-09-08T05:16:46.664Z,72.00
2018-09-08T05:17:46.654Z,80.00
2018-09-08T05:18:46.659Z,68.00
2018-09-08T05:19:46.642Z,84.00
2018-09-08T05:20:46.624Z,92.00
2018-09-08T05:21:46.605Z,80.00
2018-09-08T05:22:46.593Z,88.00
2018-09-08T05:23:46.592Z,104.00
2018-09-08T05:24:46.594Z,96.00
2018-09-08T05:25:46.567Z,100.00
2018-09-08T05:26:46.551Z,124.00
2018-09-08T05:27:46.533Z,108.00
2018-09-08T05:28:46.560Z,112.00
2018-09-08T05:29:46.511Z,132.00
2018-09-08T05:30:46.513Z,116.00
2018-09-08T05:31:46.492Z,116.00
2018-09-08T05:32:46.510Z,140.00
2018-09-08T05:33:46.466Z,132.00
2018-09-08T05:34:46.479Z,128.00
2018-09-08T05:35:46.446Z,160.00
2018-09-08T05:36:46.435Z,148.00
2018-09-08T05:37:46.430Z,132.00
2018-09-08T05:38:46.432Z,144.00
2018-09-08T05:39:46.441Z,144.00
2018-09-08T05:40:46.388Z,120.00
2018-09-08T05:41:46.380Z,136.00
2018-09-08T05:42:46.462Z,144.00
2018-09-08T05:43:46.359Z,128.00
2018-09-08T05:44:46.344Z,148.00
2018-09-08T05:45:46.346Z,168.00
2018-09-08T05:46:46.345Z,160.00
2018-09-08T05:47:46.310Z,176.00
2018-09-08T05:48:46.352Z,200.00
2018-09-08T05:49:46.289Z,180.00
2018-09-08T05:50:46.279Z,164.00
2018-09-08T05:51:46.270Z,160.00
2018-09-08T05:52:46.274Z,176.00
2018-09-08T05:53:46.248Z,164.00
2018-09-08T05:54:46.271Z,172.00
2018-09-08T05:55:46.222Z,196.00
2018-09-08T05:56:46.212Z,188.00
2018-09-08T05:57:46.223Z,192.00
2018-09-08T05:58:46.212Z,220.00
2018-09-08T05:59:46.199Z,228.00
2018-09-08T06:00:46.162Z,204.00
2018-09-08T06:01:46.150Z,220.00
2018-09-08T06:02:46.142Z,248.00
2018-09-08T06:03:46.129Z,224.00
2018-09-08T06:04:46.118Z,212.00
2018-09-08T06:05:46.137Z,244.00
2018-09-08T06:06:46.115Z,252.00
2018-09-08T06:07:46.090Z,224.00
2018-09-08T06:08:46.075Z,220.00
2018-09-08T06:09:46.065Z,272.00
2018-09-08T06:10:46.048Z,252.00
2018-09-08T06:11:46.039Z,252.00
2018-09-08T06:12:46.078Z,288.00
2018-09-08T06:13:46.027Z,272.00
2018-09-08T06:14:46.028Z,248.00
2018-09-08T06:15:46.032Z,276.00
2018-09-08T06:16:45.985Z,304.00
2018-09-08T06:17:45.970Z,276.00
2018-09-08T06:18:45.981Z,280.00
2018-09-08T06:19:46.043Z,328.00
2018-09-08T06:20:45.938Z,312.00
2018-09-08T06:21:45.941Z,276.00
2018-09-08T06:22:45.919Z,320.00
2018-09-08T06:23:45.941Z,344.00
2018-09-08T06:24:45.917Z,312.00
2018-09-08T06:25:45.878Z,340.00
2018-09-08T06:26:45.879Z,384.00
2018-09-08T06:27:45.854Z,384.00
2018-09-08T06:28:45.899Z,364.00
2018-09-08T06:29:45.839Z,408.00
2018-09-08T06:30:45.875Z,508.00
2018-09-08T06:31:45.882Z,452.00
2018-09-08T06:32:45.847Z,492.00
2018-09-08T06:33:45.815Z,500.00
2018-09-08T06:34:45.778Z,596.00
2018-09-08T06:35:45.777Z,560.00
2018-09-08T06:36:45.780Z,760.00
2018-09-08T06:37:45.770Z,636.00
2018-09-08T06:38:45.738Z,588.00
2018-09-08T06:39:45.722Z,584.00
2018-09-08T06:40:45.711Z,600.00
2018-09-08T06:41:45.716Z,668.00
2018-09-08T06:42:45.710Z,892.00
2018-09-08T06:43:45.679Z,2312.00
2018-09-08T06:44:45.802Z,2032.00
2018-09-08T06:45:45.658Z,1864.00
2018-09-08T06:46:45.683Z,648.00
2018-09-08T06:47:45.639Z,892.00
2018-09-08T06:48:45.690Z,1364.00
2018-09-08T06:49:45.606Z,1052.00
2018-09-08T06:50:45.599Z,1080.00
2018-09-08T06:51:45.625Z,2420.00
2018-09-08T06:52:45.575Z,2628.00
2018-09-08T06:53:45.573Z,1100.00
2018-09-08T06:54:45.575Z,1428.00
2018-09-08T06:55:45.546Z,2104.00
2018-09-08T06:56:45.527Z,1952.00
2018-09-08T06:57:45.560Z,1316.00
2018-09-08T06:58:45.507Z,1092.00
2018-09-08T06:59:45.518Z,996.00
2018-09-08T07:00:45.499Z,1172.00
2018-09-08T07:01:45.486Z,1264.00
2018-09-08T07:02:45.463Z,1216.00
2018-09-08T07:03:45.464Z,1168.00
2018-09-08T07:04:45.473Z,1220.00
2018-09-08T07:05:45.429Z,1172.00
2018-09-08T07:06:45.449Z,1084.00
2018-09-08T07:07:45.406Z,1052.00
2018-09-08T07:08:45.475Z,988.00
2018-09-08T07:09:45.386Z,1044.00
2018-09-08T07:10:45.374Z,1208.00
2018-09-08T07:11:45.366Z,1096.00
2018-09-08T07:12:45.381Z,1048.00
2018-09-08T07:13:45.340Z,1300.00
2018-09-08T07:14:45.336Z,924.00
2018-09-08T07:15:45.317Z,912.00
2018-09-08T07:16:45.307Z,912.00
2018-09-08T07:17:45.295Z,896.00
2018-09-08T07:18:45.371Z,868.00
2018-09-08T07:19:45.272Z,916.00
2018-09-08T07:20:45.257Z,1024.00
2018-09-08T07:21:45.279Z,1120.00
2018-09-08T07:22:45.243Z,1164.00
2018-09-08T07:23:45.229Z,1132.00
2018-09-08T07:24:45.278Z,1104.00
2018-09-08T07:25:45.230Z,1140.00
2018-09-08T07:26:45.222Z,1168.00
2018-09-08T07:27:45.184Z,1264.00
2018-09-08T07:28:45.169Z,1276.00
2018-09-08T07:29:45.162Z,1296.00
2018-09-08T07:30:45.164Z,2256.00
2018-09-08T07:31:45.137Z,1584.00
2018-09-08T07:32:45.127Z,1468.00
2018-09-08T07:33:45.197Z,1296.00
2018-09-08T07:34:45.137Z,1260.00
2018-09-08T07:35:45.115Z,1360.00
2018-09-08T07:36:45.085Z,1308.00
2018-09-08T07:37:45.088Z,1300.00
2018-09-08T07:38:45.058Z,1204.00
2018-09-08T07:39:45.049Z,1224.00
2018-09-08T07:40:45.045Z,1196.00
2018-09-08T07:41:45.050Z,1276.00
2018-09-08T07:42:45.019Z,1296.00
2018-09-08T07:43:45.003Z,1364.00
2018-09-08T07:44:44.988Z,1528.00
2018-09-08T07:45:44.981Z,1236.00
2018-09-08T07:46:44.973Z,1452.00
2018-09-08T07:47:45.028Z,1344.00
2018-09-08T07:48:44.950Z,1344.00
2018-09-08T07:49:44.967Z,1312.00
2018-09-08T07:50:44.925Z,1168.00
2018-09-08T07:51:44.926Z,1088.00
2018-09-08T07:52:44.901Z,1340.00
2018-09-08T07:53:44.969Z,1240.00
2018-09-08T07:54:44.879Z,1476.00
2018-09-08T07:55:44.890Z,1564.00
2018-09-08T07:56:44.861Z,1532.00
2018-09-08T07:57:44.866Z,1580.00
2018-09-08T07:58:44.840Z,1584.00
2018-09-08T07:59:44.838Z,1556.00
2018-09-08T08:00:44.820Z,1600.00
2018-09-08T08:01:44.806Z,1628.00
2018-09-08T08:02:44.789Z,1560.00
2018-09-08T08:03:44.794Z,1552.00
2018-09-08T08:04:44.781Z,1596.00
2018-09-08T08:05:44.775Z,1668.00
2018-09-08T08:06:44.824Z,1792.00
2018-09-08T08:07:44.753Z,1812.00
2018-09-08T08:08:44.755Z,1792.00
2018-09-08T08:09:44.709Z,1472.00
2018-09-08T08:10:44.709Z,1804.00
2018-09-08T08:11:44.724Z,1812.00
2018-09-08T08:12:44.709Z,1848.00
2018-09-08T08:13:44.684Z,2040.00
2018-09-08T08:14:44.669Z,1908.00
2018-09-08T08:15:44.656Z,1964.00
2018-09-08T08:16:44.644Z,1896.00
2018-09-08T08:17:44.638Z,1884.00
2018-09-08T08:18:44.612Z,1924.00
2018-09-08T08:19:44.601Z,1916.00
2018-09-08T08:20:44.590Z,1908.00
2018-09-08T08:21:44.589Z,1784.00
2018-09-08T08:22:44.570Z,1860.00
2018-09-08T08:23:44.568Z,1872.00
2018-09-08T08:24:44.542Z,1872.00
2018-09-08T08:25:44.565Z,1848.00
2018-09-08T08:26:44.528Z,1772.00
2018-09-08T08:27:44.536Z,1804.00
2018-09-08T08:28:44.495Z,1836.00
2018-09-08T08:29:44.485Z,1972.00
2018-09-08T08:30:44.498Z,1940.00
2018-09-08T08:31:44.485Z,2088.00
2018-09-08T08:32:44.478Z,2032.00
2018-09-08T08:33:44.440Z,2036.00
2018-09-08T08:34:44.462Z,2060.00
2018-09-08T08:35:44.429Z,1968.00
2018-09-08T08:36:44.424Z,2004.00
2018-09-08T08:37:44.421Z,2052.00
2018-09-08T08:38:44.390Z,1984.00
2018-09-08T08:39:44.390Z,1920.00
2018-09-08T08:40:44.387Z,2076.00
2018-09-08T08:41:44.355Z,1940.00
2018-09-08T08:42:44.349Z,1916.00
2018-09-08T08:43:44.367Z,2076.00
2018-09-08T08:44:44.318Z,2024.00
2018-09-08T08:45:44.307Z,2028.00
2018-09-08T08:46:44.295Z,1908.00
2018-09-08T08:47:44.291Z,1876.00
2018-09-08T08:48:44.290Z,1732.00
2018-09-08T08:49:44.300Z,1704.00
2018-09-08T08:50:44.254Z,1612.00
2018-09-08T08:51:44.237Z,1672.00
2018-09-08T08:52:44.226Z,1628.00
2018-09-08T08:53:44.216Z,1688.00
2018-09-08T08:54:44.223Z,1712.00
2018-09-08T08:55:44.254Z,1736.00
2018-09-08T08:56:44.190Z,1820.00
2018-09-08T08:57:44.168Z,1852.00
2018-09-08T08:58:44.193Z,1840.00
2018-09-08T08:59:44.149Z,1760.00
2018-09-08T09:00:44.154Z,1840.00
2018-09-08T09:01:44.155Z,1804.00
2018-09-08T09:02:44.113Z,1936.00
2018-09-08T09:03:44.106Z,1824.00
2018-09-08T09:04:44.091Z,1960.00
2018-09-08T09:05:44.078Z,2100.00
2018-09-08T09:06:44.107Z,1996.00
2018-09-08T09:07:44.094Z,1976.00
2018-09-08T09:08:44.453Z,1696.00
2018-09-08T09:09:44.047Z,1744.00
2018-09-08T09:10:44.068Z,1676.00
2018-09-08T09:11:44.026Z,1544.00
2018-09-08T09:12:44.053Z,1472.00
2018-09-08T09:13:44.000Z,1460.00
2018-09-08T09:14:43.975Z,1424.00
2018-09-08T09:15:43.963Z,1516.00
2018-09-08T09:16:43.957Z,1440.00
2018-09-08T09:17:43.949Z,1768.00
2018-09-08T09:18:44.389Z,1840.00
2018-09-08T09:19:43.937Z,1832.00
2018-09-08T09:20:43.910Z,1808.00
2018-09-08T09:21:43.895Z,1780.00
2018-09-08T09:22:43.887Z,1700.00
2018-09-08T09:23:43.895Z,1572.00
2018-09-08T09:24:44.307Z,1572.00
2018-09-08T09:25:43.853Z,1636.00
2018-09-08T09:26:43.844Z,1580.00
2018-09-08T09:27:43.833Z,1328.00
2018-09-08T09:28:43.860Z,1388.00
2018-09-08T09:29:43.806Z,1452.00
2018-09-08T09:30:43.820Z,1496.00
2018-09-08T09:31:43.791Z,1448.00
2018-09-08T09:32:43.788Z,1384.00
2018-09-08T09:33:43.763Z,1340.00
2018-09-08T09:34:43.772Z,1324.00
2018-09-08T09:35:43.738Z,1216.00
2018-09-08T09:36:43.772Z,1188.00
2018-09-08T09:37:43.782Z,1180.00
2018-09-08T09:38:43.706Z,996.00
2018-09-08T09:39:43.701Z,1160.00
2018-09-08T09:40:43.689Z,1192.00
2018-09-08T09:41:43.679Z,1176.00
2018-09-08T09:42:43.677Z,1288.00
2018-09-08T09:43:43.678Z,1384.00
2018-09-08T09:44:43.642Z,1360.00
2018-09-08T09:45:43.645Z,1352.00
2018-09-08T09:46:43.629Z,1408.00
2018-09-08T09:47:43.666Z,1400.00
2018-09-08T09:48:43.594Z,1408.00
2018-09-08T09:49:43.580Z,1380.00
2018-09-08T09:50:43.576Z,1256.00
2018-09-08T09:51:43.577Z,1244.00
2018-09-08T09:52:43.564Z,1368.00
2018-09-08T09:53:43.554Z,1252.00
2018-09-08T09:54:43.531Z,1196.00
2018-09-08T09:55:43.514Z,1108.00
2018-09-08T09:56:43.504Z,1136.00
2018-09-08T09:57:43.499Z,1216.00
2018-09-08T09:58:43.488Z,1120.00
2018-09-08T09:59:43.496Z,1316.00
2018-09-08T10:00:43.489Z,1616.00
2018-09-08T10:01:43.451Z,1864.00
2018-09-08T10:02:43.441Z,1780.00
2018-09-08T10:03:43.459Z,1864.00
2018-09-08T10:04:43.430Z,1972.00
2018-09-08T10:05:43.417Z,1820.00
2018-09-08T10:06:43.397Z,2320.00
2018-09-08T10:07:43.413Z,1812.00
2018-09-08T10:08:43.371Z,1792.00
2018-09-08T10:09:43.386Z,1608.00
2018-09-08T10:10:43.345Z,1288.00
2018-09-08T10:11:43.366Z,1328.00
2018-09-08T10:12:43.343Z,1348.00
2018-09-08T10:13:43.374Z,1308.00
2018-09-08T10:14:43.324Z,1808.00
2018-09-08T10:15:43.288Z,1528.00
2018-09-08T10:16:43.282Z,1844.00
2018-09-08T10:17:43.308Z,1552.00
2018-09-08T10:18:43.288Z,1348.00
2018-09-08T10:19:43.274Z,1520.00
2018-09-08T10:20:43.252Z,1608.00
2018-09-08T10:21:43.230Z,1604.00
2018-09-08T10:22:43.216Z,1684.00
2018-09-08T10:24:04.342Z,1684.00
2018-09-08T10:24:43.207Z,1824.00
2018-09-08T10:25:43.190Z,1660.00
2018-09-08T10:26:43.164Z,1932.00
2018-09-08T10:27:43.159Z,1444.00
2018-09-08T10:28:43.144Z,1688.00
2018-09-08T10:29:43.185Z,1704.00
2018-09-08T10:30:43.127Z,1744.00
2018-09-08T10:31:43.125Z,1456.00
2018-09-08T10:32:43.122Z,1372.00
2018-09-08T10:33:43.096Z,1380.00
2018-09-08T10:34:43.145Z,1380.00
2018-09-08T10:35:43.090Z,1116.00
2018-09-08T10:36:43.070Z,1372.00
2018-09-08T10:37:43.060Z,1328.00
2018-09-08T10:38:43.039Z,1268.00
2018-09-08T10:39:43.025Z,972.00
2018-09-08T10:40:43.020Z,792.00
2018-09-08T10:41:43.015Z,760.00
2018-09-08T10:42:42.997Z,764.00
2018-09-08T10:43:42.975Z,912.00
2018-09-08T10:44:42.963Z,848.00
2018-09-08T10:45:42.953Z,756.00
2018-09-08T10:46:42.963Z,708.00
2018-09-08T10:47:42.931Z,728.00
2018-09-08T10:48:42.961Z,780.00
2018-09-08T10:49:42.908Z,804.00
2018-09-08T10:50:42.904Z,804.00
2018-09-08T10:51:42.932Z,720.00
2018-09-08T10:52:42.913Z,680.00
2018-09-08T10:53:42.861Z,776.00
2018-09-08T10:54:42.896Z,908.00
2018-09-08T10:55:42.852Z,824.00
2018-09-08T10:56:42.830Z,856.00
2018-09-08T10:57:42.818Z,836.00
2018-09-08T10:58:42.824Z,844.00
2018-09-08T10:59:42.792Z,884.00
2018-09-08T11:00:42.794Z,916.00
2018-09-08T11:01:42.913Z,1200.00
2018-09-08T11:02:43.084Z,1060.00
2018-09-08T11:03:42.753Z,1204.00
2018-09-08T11:04:42.785Z,1208.00
2018-09-08T11:05:42.729Z,2116.00
2018-09-08T11:06:42.723Z,1668.00
2018-09-08T11:07:42.745Z,1064.00
2018-09-08T11:08:42.693Z,1252.00
2018-09-08T11:09:42.681Z,1516.00
2018-09-08T11:10:42.685Z,1788.00
2018-09-08T11:11:42.660Z,2200.00
2018-09-08T11:12:42.650Z,1284.00
2018-09-08T11:13:42.671Z,1072.00
2018-09-08T11:14:42.627Z,1032.00
2018-09-08T11:15:42.655Z,1000.00
2018-09-08T11:16:42.620Z,836.00
2018-09-08T11:17:42.593Z,804.00
2018-09-08T11:18:42.631Z,828.00
2018-09-08T11:19:42.590Z,828.00
2018-09-08T11:20:42.571Z,904.00
2018-09-08T11:21:42.551Z,856.00
2018-09-08T11:22:42.556Z,840.00
2018-09-08T11:23:42.534Z,1208.00
2018-09-08T11:24:42.516Z,1872.00
2018-09-08T11:25:42.510Z,1860.00
2018-09-08T11:26:42.732Z,2128.00
2018-09-08T11:27:42.480Z,808.00
2018-09-08T11:28:42.482Z,752.00
2018-09-08T11:29:42.458Z,724.00
2018-09-08T11:30:42.587Z,676.00
2018-09-08T11:31:42.437Z,688.00
2018-09-08T11:32:42.475Z,628.00
2018-09-08T11:33:42.429Z,560.00
2018-09-08T11:34:42.416Z,536.00
2018-09-08T11:35:42.419Z,532.00
2018-09-08T11:36:42.379Z,560.00
2018-09-08T11:37:42.373Z,632.00
2018-09-08T11:38:42.356Z,756.00
2018-09-08T11:39:42.357Z,956.00
2018-09-08T11:40:42.386Z,960.00
2018-09-08T11:41:42.327Z,876.00
2018-09-08T11:42:42.311Z,896.00
2018-09-08T11:43:42.319Z,1316.00
2018-09-08T11:44:42.349Z,1264.00
2018-09-08T11:45:42.294Z,1740.00
2018-09-08T11:46:42.288Z,2016.00
2018-09-08T11:47:42.262Z,2096.00
2018-09-08T11:48:42.292Z,1932.00
2018-09-08T11:49:42.337Z,1900.00
2018-09-08T11:50:42.280Z,1152.00
2018-09-08T11:51:42.239Z,1080.00
2018-09-08T11:52:42.221Z,1132.00
2018-09-08T11:53:42.196Z,1388.00
2018-09-08T11:54:42.178Z,1400.00
2018-09-08T11:55:42.173Z,1212.00
2018-09-08T11:56:42.311Z,1540.00
2018-09-08T11:57:42.146Z,1064.00
2018-09-08T11:58:42.152Z,1484.00
2018-09-08T11:59:42.169Z,1244.00
2018-09-08T12:00:42.150Z,2244.00
2018-09-08T12:01:42.109Z,2092.00
2018-09-08T12:02:42.089Z,1784.00
2018-09-08T12:03:42.256Z,2048.00
2018-09-08T12:04:42.108Z,2412.00
2018-09-08T12:05:42.052Z,2784.00
2018-09-08T12:06:42.045Z,2784.00
2018-09-08T12:07:42.032Z,2452.00
2018-09-08T12:08:42.052Z,2604.00
2018-09-08T12:09:42.011Z,1192.00
2018-09-08T12:10:42.029Z,1212.00
2018-09-08T12:11:41.997Z,868.00
2018-09-08T12:12:41.975Z,1216.00
2018-09-08T12:13:41.964Z,1248.00
2018-09-08T12:14:41.980Z,888.00
2018-09-08T12:15:41.941Z,1136.00
2018-09-08T12:16:41.989Z,1196.00
2018-09-08T12:17:41.921Z,1280.00
2018-09-08T12:18:41.907Z,2920.00
2018-09-08T12:19:41.899Z,2268.00
2018-09-08T12:20:41.924Z,2972.00
2018-09-08T12:21:41.873Z,3448.00
2018-09-08T12:22:41.888Z,3328.00
2018-09-08T12:23:41.856Z,924.00
2018-09-08T12:24:41.843Z,1136.00
2018-09-08T12:25:41.892Z,2164.00
2018-09-08T12:26:41.822Z,1352.00
2018-09-08T12:27:41.844Z,832.00
2018-09-08T12:28:41.813Z,804.00
2018-09-08T12:29:41.796Z,816.00
2018-09-08T12:30:41.956Z,884.00
2018-09-08T12:31:41.767Z,1072.00
2018-09-08T12:32:41.755Z,1160.00
2018-09-08T12:33:41.758Z,1984.00
2018-09-08T12:34:41.741Z,2728.00
2018-09-08T12:35:41.740Z,2452.00
2018-09-08T12:36:41.709Z,2212.00
2018-09-08T12:37:41.694Z,2420.00
2018-09-08T12:38:41.734Z,2448.00